This is the latest recevied weather packets stored in our database for station/object DG5TS-10. If no packets are shown the sender has not sent any weather packets the latest 10 day(s).
| Time | Temp. | Humidity | Pressure | Rain* | Wind** | Luminosity | Snow |
|---|---|---|---|---|---|---|---|
| 1777500740 | 19.44° C | 27% | 1031.6 hPa | - | - | - | - |
| 1777499156 | 19.44° C | 28% | 1031.4 hPa | - | - | - | - |
| 1777498448 | 20° C | 26% | 1031.3 hPa | - | - | - | - |
| 1777497043 | 20.56° C | 26% | 1031.2 hPa | - | - | - | - |
| 1777496334 | 21.11° C | 26% | 1031 hPa | - | - | - | - |
| 1777494928 | 21.11° C | 25% | 1030.9 hPa | - | - | - | - |
| 1777493873 | 21.67° C | 24% | 1030.8 hPa | - | - | - | - |
| 1777492988 | 22.22° C | 24% | 1030.7 hPa | - | - | - | - |
| 1777491755 | 22.78° C | 23% | 1030.7 hPa | - | - | - | - |
| 1777490701 | 23.33° C | 22% | 1030.4 hPa | - | - | - | - |
| 1777489818 | 23.89° C | 21% | 1030.3 hPa | - | - | - | - |
| 1777488939 | 25° C | 20% | 1030.2 hPa | - | - | - | - |
| 1777487526 | 25.56° C | 19% | 1030 hPa | - | - | - | - |
| 1777486647 | 26.11° C | 17% | 1029.8 hPa | - | - | - | - |
| 1777485414 | 25.56° C | 17% | 1029.7 hPa | - | - | - | - |
| 1777484359 | 23.89° C | 16% | 1029.5 hPa | - | - | - | - |
| 1777483304 | 26.67° C | 13% | 1029.4 hPa | - | - | - | - |
| 1777482599 | 33.33° C | 9% | 1029.1 hPa | - | - | - | - |
| 1777478019 | 50.56° C | 15% | 1029.2 hPa | - | - | - | - |
| 1777476961 | 52.22° C | 14% | 1029.2 hPa | - | - | - | - |
| 1777476080 | 53.33° C | 13% | 1029.4 hPa | - | - | - | - |
| 1777475022 | 53.89° C | 11% | 1029.4 hPa | - | - | - | - |
| 1777473787 | 55° C | 9% | 1029.6 hPa | - | - | - | - |
| 1777472732 | 55° C | 9% | 1029.6 hPa | - | - | - | - |
| 1777471852 | 55° C | 8% | 1029.7 hPa | - | - | - | - |
* Rain since midnight (hover to see other rain measurements)
** Current wind speed in m/s (hover to see current wind gust speed)